<?xml version="1.0" encoding="utf-8"?>
<gpx xmlns:xsi="http://www.w3.org/2001/XMLSchema-instance" xmlns:xsd="http://www.w3.org/2001/XMLSchema" version="1.1" creator="Shapelink.com" xmlns="http://www.topografix.com/GPX/1/1" xmlns:gpxtpx="http://www.garmin.com/xmlschemas/TrackPointExtension/v1">
  <metadata>
    <name>Cycling 8.44 km, 2020-07-27</name>
    <desc></desc>
    <author><name>Marian Moron</name></author> 
    <time>2020-07-27T19:09:26Z</time>
  </metadata>
  <trk>
    <name>Cycling 8.44 km, 2020-07-27</name>
    <trkseg>
      <trkpt lat="51.228806634119" lon="4.448906241441">
        <ele>0</ele>
        <time>2020-07-27T19:09:26Z</time>
      </trkpt>
      <trkpt lat="51.228844687945" lon="4.448755786336">
        <ele>0</ele>
        <time>2020-07-27T19:09:32Z</time>
      </trkpt>
      <trkpt lat="51.228860529736" lon="4.448756875983">
        <ele>0</ele>
        <time>2020-07-27T19:09:34Z</time>
      </trkpt>
      <trkpt lat="51.228847286334" lon="4.448789146298">
        <ele>0</ele>
        <time>2020-07-27T19:09:36Z</time>
      </trkpt>
      <trkpt lat="51.228825493394" lon="4.448797276741">
        <ele>0.6</ele>
        <time>2020-07-27T19:09:38Z</time>
      </trkpt>
      <trkpt lat="51.228822978824" lon="4.448757546535">
        <ele>0</ele>
        <time>2020-07-27T19:09:41Z</time>
      </trkpt>
      <trkpt lat="51.228823817014" lon="4.44882250626">
        <ele>0</ele>
        <time>2020-07-27T19:09:45Z</time>
      </trkpt>
      <trkpt lat="51.228738070177" lon="4.448914455703">
        <ele>0</ele>
        <time>2020-07-27T19:09:50Z</time>
      </trkpt>
      <trkpt lat="51.228736896711" lon="4.448858632249">
        <ele>0</ele>
        <time>2020-07-27T19:09:52Z</time>
      </trkpt>
      <trkpt lat="51.22876966994" lon="4.448815633102">
        <ele>0</ele>
        <time>2020-07-27T19:09:54Z</time>
      </trkpt>
      <trkpt lat="51.229022719501" lon="4.448485134785">
        <ele>1.2</ele>
        <time>2020-07-27T19:10:11Z</time>
      </trkpt>
      <trkpt lat="51.229028083917" lon="4.448456887782">
        <ele>1.2</ele>
        <time>2020-07-27T19:10:13Z</time>
      </trkpt>
      <trkpt lat="51.228666404932" lon="4.447743085178">
        <ele>0</ele>
        <time>2020-07-27T19:10:34Z</time>
      </trkpt>
      <trkpt lat="51.228265750112" lon="4.447179318584">
        <ele>0</ele>
        <time>2020-07-27T19:10:50Z</time>
      </trkpt>
      <trkpt lat="51.22785269008" lon="4.447768649973">
        <ele>0</ele>
        <time>2020-07-27T19:11:11Z</time>
      </trkpt>
      <trkpt lat="51.227458321685" lon="4.448373068782">
        <ele>0.2</ele>
        <time>2020-07-27T19:11:29Z</time>
      </trkpt>
      <trkpt lat="51.227101252745" lon="4.449057702374">
        <ele>0</ele>
        <time>2020-07-27T19:11:47Z</time>
      </trkpt>
      <trkpt lat="51.226874354712" lon="4.449349811589">
        <ele>0</ele>
        <time>2020-07-27T19:12:02Z</time>
      </trkpt>
      <trkpt lat="51.22669012055" lon="4.449152836939">
        <ele>0</ele>
        <time>2020-07-27T19:12:13Z</time>
      </trkpt>
      <trkpt lat="51.226561123109" lon="4.449351487969">
        <ele>0</ele>
        <time>2020-07-27T19:12:20Z</time>
      </trkpt>
      <trkpt lat="51.226250489895" lon="4.448868355253">
        <ele>0</ele>
        <time>2020-07-27T19:12:35Z</time>
      </trkpt>
      <trkpt lat="51.225878584992" lon="4.449551480103">
        <ele>0</ele>
        <time>2020-07-27T19:12:53Z</time>
      </trkpt>
      <trkpt lat="51.225339880279" lon="4.449725655985">
        <ele>0</ele>
        <time>2020-07-27T19:13:12Z</time>
      </trkpt>
      <trkpt lat="51.224839061754" lon="4.450146595003">
        <ele>0</ele>
        <time>2020-07-27T19:13:28Z</time>
      </trkpt>
      <trkpt lat="51.224456176562" lon="4.45077297439">
        <ele>0</ele>
        <time>2020-07-27T19:13:41Z</time>
      </trkpt>
      <trkpt lat="51.22403892558" lon="4.451347805092">
        <ele>0</ele>
        <time>2020-07-27T19:13:55Z</time>
      </trkpt>
      <trkpt lat="51.223479433755" lon="4.451273541458">
        <ele>0</ele>
        <time>2020-07-27T19:14:10Z</time>
      </trkpt>
      <trkpt lat="51.222941483413" lon="4.451097773015">
        <ele>0</ele>
        <time>2020-07-27T19:14:25Z</time>
      </trkpt>
      <trkpt lat="51.222389032384" lon="4.451106238734">
        <ele>0</ele>
        <time>2020-07-27T19:14:41Z</time>
      </trkpt>
      <trkpt lat="51.221859296304" lon="4.451431540273">
        <ele>0</ele>
        <time>2020-07-27T19:14:59Z</time>
      </trkpt>
      <trkpt lat="51.221333080622" lon="4.451657683935">
        <ele>0</ele>
        <time>2020-07-27T19:15:18Z</time>
      </trkpt>
      <trkpt lat="51.220770655132" lon="4.451729684456">
        <ele>0</ele>
        <time>2020-07-27T19:15:37Z</time>
      </trkpt>
      <trkpt lat="51.220219964302" lon="4.451883408502">
        <ele>0</ele>
        <time>2020-07-27T19:15:51Z</time>
      </trkpt>
      <trkpt lat="51.219670446938" lon="4.45196907152">
        <ele>2</ele>
        <time>2020-07-27T19:16:06Z</time>
      </trkpt>
      <trkpt lat="51.219115146063" lon="4.452058087298">
        <ele>0</ele>
        <time>2020-07-27T19:16:20Z</time>
      </trkpt>
      <trkpt lat="51.219036020927" lon="4.451986757329">
        <ele>0</ele>
        <time>2020-07-27T19:16:22Z</time>
      </trkpt>
      <trkpt lat="51.2189242902" lon="4.451820208976">
        <ele>0</ele>
        <time>2020-07-27T19:16:25Z</time>
      </trkpt>
      <trkpt lat="51.218833681861" lon="4.451741335297">
        <ele>0</ele>
        <time>2020-07-27T19:16:27Z</time>
      </trkpt>
      <trkpt lat="51.21832330797" lon="4.451870081281">
        <ele>0</ele>
        <time>2020-07-27T19:16:40Z</time>
      </trkpt>
      <trkpt lat="51.218190287217" lon="4.452676420061">
        <ele>0</ele>
        <time>2020-07-27T19:16:56Z</time>
      </trkpt>
      <trkpt lat="51.218168326639" lon="4.453556519561">
        <ele>0</ele>
        <time>2020-07-27T19:17:11Z</time>
      </trkpt>
      <trkpt lat="51.218125746587" lon="4.454436451423">
        <ele>0</ele>
        <time>2020-07-27T19:17:27Z</time>
      </trkpt>
      <trkpt lat="51.218055338627" lon="4.455296853458">
        <ele>0</ele>
        <time>2020-07-27T19:17:44Z</time>
      </trkpt>
      <trkpt lat="51.218018458267" lon="4.456217940449">
        <ele>0</ele>
        <time>2020-07-27T19:18:01Z</time>
      </trkpt>
      <trkpt lat="51.217964646469" lon="4.457114468473">
        <ele>0</ele>
        <time>2020-07-27T19:18:16Z</time>
      </trkpt>
      <trkpt lat="51.217637165636" lon="4.457854087329">
        <ele>0</ele>
        <time>2020-07-27T19:18:30Z</time>
      </trkpt>
      <trkpt lat="51.217328963173" lon="4.458449705143">
        <ele>0</ele>
        <time>2020-07-27T19:18:43Z</time>
      </trkpt>
      <trkpt lat="51.217181525552" lon="4.457611682781">
        <ele>0</ele>
        <time>2020-07-27T19:19:00Z</time>
      </trkpt>
      <trkpt lat="51.217180687362" lon="4.457590057479">
        <ele>0</ele>
        <time>2020-07-27T19:19:01Z</time>
      </trkpt>
      <trkpt lat="51.217110530859" lon="4.457396100313">
        <ele>0</ele>
        <time>2020-07-27T19:20:21Z</time>
      </trkpt>
      <trkpt lat="51.217060742373" lon="4.456531004414">
        <ele>0</ele>
        <time>2020-07-27T19:20:50Z</time>
      </trkpt>
      <trkpt lat="51.216959069926" lon="4.455687449998">
        <ele>0</ele>
        <time>2020-07-27T19:21:11Z</time>
      </trkpt>
      <trkpt lat="51.216910874001" lon="4.455445296907">
        <ele>0</ele>
        <time>2020-07-27T19:21:27Z</time>
      </trkpt>
      <trkpt lat="51.216862761895" lon="4.45624216414">
        <ele>0</ele>
        <time>2020-07-27T19:21:45Z</time>
      </trkpt>
      <trkpt lat="51.216494293571" lon="4.456898131634">
        <ele>0</ele>
        <time>2020-07-27T19:22:03Z</time>
      </trkpt>
      <trkpt lat="51.216213248464" lon="4.457635655015">
        <ele>0</ele>
        <time>2020-07-27T19:22:19Z</time>
      </trkpt>
      <trkpt lat="51.215862130673" lon="4.45831416982">
        <ele>0</ele>
        <time>2020-07-27T19:22:39Z</time>
      </trkpt>
      <trkpt lat="51.215429205538" lon="4.458867207582">
        <ele>0</ele>
        <time>2020-07-27T19:22:59Z</time>
      </trkpt>
      <trkpt lat="51.214935930723" lon="4.459308766074">
        <ele>1.6</ele>
        <time>2020-07-27T19:23:17Z</time>
      </trkpt>
      <trkpt lat="51.214466879599" lon="4.459785780003">
        <ele>0</ele>
        <time>2020-07-27T19:23:37Z</time>
      </trkpt>
      <trkpt lat="51.214416252923" lon="4.45981033897">
        <ele>0</ele>
        <time>2020-07-27T19:23:45Z</time>
      </trkpt>
      <trkpt lat="51.214107882822" lon="4.459075665435">
        <ele>0</ele>
        <time>2020-07-27T19:24:07Z</time>
      </trkpt>
      <trkpt lat="51.213997996113" lon="4.458254323054">
        <ele>0</ele>
        <time>2020-07-27T19:24:23Z</time>
      </trkpt>
      <trkpt lat="51.213913925656" lon="4.457430633741">
        <ele>0</ele>
        <time>2020-07-27T19:24:42Z</time>
      </trkpt>
      <trkpt lat="51.213599017673" lon="4.456674921637">
        <ele>0</ele>
        <time>2020-07-27T19:25:00Z</time>
      </trkpt>
      <trkpt lat="51.213561802037" lon="4.455801024743">
        <ele>0</ele>
        <time>2020-07-27T19:25:18Z</time>
      </trkpt>
      <trkpt lat="51.213592479791" lon="4.454896450095">
        <ele>9.4</ele>
        <time>2020-07-27T19:25:36Z</time>
      </trkpt>
      <trkpt lat="51.213562472589" lon="4.454033449671">
        <ele>8.6</ele>
        <time>2020-07-27T19:25:53Z</time>
      </trkpt>
      <trkpt lat="51.213519054347" lon="4.453131138136">
        <ele>1.4</ele>
        <time>2020-07-27T19:26:12Z</time>
      </trkpt>
      <trkpt lat="51.213515953044" lon="4.452236621768">
        <ele>0</ele>
        <time>2020-07-27T19:26:30Z</time>
      </trkpt>
      <trkpt lat="51.213533638853" lon="4.451366664367">
        <ele>0.6</ele>
        <time>2020-07-27T19:26:52Z</time>
      </trkpt>
      <trkpt lat="51.213489382421" lon="4.450502909572">
        <ele>0</ele>
        <time>2020-07-27T19:27:13Z</time>
      </trkpt>
      <trkpt lat="51.213316631462" lon="4.449687937435">
        <ele>0</ele>
        <time>2020-07-27T19:27:33Z</time>
      </trkpt>
      <trkpt lat="51.213092834732" lon="4.448905235613">
        <ele>0</ele>
        <time>2020-07-27T19:27:51Z</time>
      </trkpt>
      <trkpt lat="51.21294631912" lon="4.448385893089">
        <ele>0</ele>
        <time>2020-07-27T19:28:04Z</time>
      </trkpt>
      <trkpt lat="51.212798713861" lon="4.448163856558">
        <ele>0</ele>
        <time>2020-07-27T19:28:15Z</time>
      </trkpt>
      <trkpt lat="51.212796450748" lon="4.44815614521">
        <ele>0</ele>
        <time>2020-07-27T19:28:50Z</time>
      </trkpt>
      <trkpt lat="51.212753954515" lon="4.448192355018">
        <ele>0</ele>
        <time>2020-07-27T19:28:55Z</time>
      </trkpt>
      <trkpt lat="51.212646163281" lon="4.4483665309">
        <ele>0</ele>
        <time>2020-07-27T19:29:06Z</time>
      </trkpt>
      <trkpt lat="51.212348186736" lon="4.449108748145">
        <ele>0.8</ele>
        <time>2020-07-27T19:29:25Z</time>
      </trkpt>
      <trkpt lat="51.21202347193" lon="4.449834453047">
        <ele>1.8</ele>
        <time>2020-07-27T19:29:40Z</time>
      </trkpt>
      <trkpt lat="51.211685848998" lon="4.450543897063">
        <ele>5.6</ele>
        <time>2020-07-27T19:29:57Z</time>
      </trkpt>
      <trkpt lat="51.211371611567" lon="4.451267003576">
        <ele>5.6</ele>
        <time>2020-07-27T19:30:17Z</time>
      </trkpt>
      <trkpt lat="51.21104362782" lon="4.452006538613">
        <ele>2.6</ele>
        <time>2020-07-27T19:30:35Z</time>
      </trkpt>
      <trkpt lat="51.210937261509" lon="4.452760406699">
        <ele>2.8</ele>
        <time>2020-07-27T19:30:52Z</time>
      </trkpt>
      <trkpt lat="51.211140103489" lon="4.453560375235">
        <ele>0.4</ele>
        <time>2020-07-27T19:31:09Z</time>
      </trkpt>
      <trkpt lat="51.211337245777" lon="4.454362690703">
        <ele>0</ele>
        <time>2020-07-27T19:31:26Z</time>
      </trkpt>
      <trkpt lat="51.211572022796" lon="4.455137848815">
        <ele>0</ele>
        <time>2020-07-27T19:31:43Z</time>
      </trkpt>
      <trkpt lat="51.211956668187" lon="4.455724414177">
        <ele>0</ele>
        <time>2020-07-27T19:31:58Z</time>
      </trkpt>
      <trkpt lat="51.212414739022" lon="4.456203942676">
        <ele>0</ele>
        <time>2020-07-27T19:32:13Z</time>
      </trkpt>
      <trkpt lat="51.212898290833" lon="4.456658074018">
        <ele>0</ele>
        <time>2020-07-27T19:32:29Z</time>
      </trkpt>
      <trkpt lat="51.213385614499" lon="4.457046323626">
        <ele>0</ele>
        <time>2020-07-27T19:32:44Z</time>
      </trkpt>
      <trkpt lat="51.213640843354" lon="4.457852243311">
        <ele>0</ele>
        <time>2020-07-27T19:33:00Z</time>
      </trkpt>
      <trkpt lat="51.213769756976" lon="4.458633017296">
        <ele>0</ele>
        <time>2020-07-27T19:33:16Z</time>
      </trkpt>
      <trkpt lat="51.213292323952" lon="4.459091674864">
        <ele>0</ele>
        <time>2020-07-27T19:33:33Z</time>
      </trkpt>
      <trkpt lat="51.212806257571" lon="4.45949098858">
        <ele>0</ele>
        <time>2020-07-27T19:33:50Z</time>
      </trkpt>
      <trkpt lat="51.212332261126" lon="4.459949394691">
        <ele>0</ele>
        <time>2020-07-27T19:34:05Z</time>
      </trkpt>
      <trkpt lat="51.211889026254" lon="4.460490278698">
        <ele>0</ele>
        <time>2020-07-27T19:34:24Z</time>
      </trkpt>
      <trkpt lat="51.211504548501" lon="4.461125961994">
        <ele>0</ele>
        <time>2020-07-27T19:34:49Z</time>
      </trkpt>
      <trkpt lat="51.211092075202" lon="4.461733063011">
        <ele>0</ele>
        <time>2020-07-27T19:35:08Z</time>
      </trkpt>
      <trkpt lat="51.210796445589" lon="4.46245147566">
        <ele>0</ele>
        <time>2020-07-27T19:35:26Z</time>
      </trkpt>
      <trkpt lat="51.210551861747" lon="4.463240463907">
        <ele>0</ele>
        <time>2020-07-27T19:35:44Z</time>
      </trkpt>
      <trkpt lat="51.210549766272" lon="4.463780342086">
        <ele>0</ele>
        <time>2020-07-27T19:35:57Z</time>
      </trkpt>
      <trkpt lat="51.211117472359" lon="4.463978490202">
        <ele>0</ele>
        <time>2020-07-27T19:36:13Z</time>
      </trkpt>
      <trkpt lat="51.21167646127" lon="4.464052502379">
        <ele>0</ele>
        <time>2020-07-27T19:36:28Z</time>
      </trkpt>
      <trkpt lat="51.212238132389" lon="4.46386550219">
        <ele>0</ele>
        <time>2020-07-27T19:36:44Z</time>
      </trkpt>
      <trkpt lat="51.212768539021" lon="4.463735834197">
        <ele>0</ele>
        <time>2020-07-27T19:37:01Z</time>
      </trkpt>
      <trkpt lat="51.213304561526" lon="4.463605160376">
        <ele>0</ele>
        <time>2020-07-27T19:37:16Z</time>
      </trkpt>
      <trkpt lat="51.213863047523" lon="4.463465601741">
        <ele>0</ele>
        <time>2020-07-27T19:37:34Z</time>
      </trkpt>
      <trkpt lat="51.213942256478" lon="4.46335755905">
        <ele>0</ele>
        <time>2020-07-27T19:37:38Z</time>
      </trkpt>
      <trkpt lat="51.214026913668" lon="4.463077519771">
        <ele>0</ele>
        <time>2020-07-27T19:37:45Z</time>
      </trkpt>
      <trkpt lat="51.21448104501" lon="4.463001076843">
        <ele>0</ele>
        <time>2020-07-27T19:38:02Z</time>
      </trkpt>
      <trkpt lat="51.214720096798" lon="4.463288995108">
        <ele>0</ele>
        <time>2020-07-27T19:38:15Z</time>
      </trkpt>
      <trkpt lat="51.215220580047" lon="4.462938296412">
        <ele>0</ele>
        <time>2020-07-27T19:38:31Z</time>
      </trkpt>
      <trkpt lat="51.215587120534" lon="4.462283586203">
        <ele>0</ele>
        <time>2020-07-27T19:38:51Z</time>
      </trkpt>
      <trkpt lat="51.215930443158" lon="4.461584116648">
        <ele>0</ele>
        <time>2020-07-27T19:39:12Z</time>
      </trkpt>
      <trkpt lat="51.216277369999" lon="4.460885317645">
        <ele>0</ele>
        <time>2020-07-27T19:39:30Z</time>
      </trkpt>
      <trkpt lat="51.216625554125" lon="4.46020093551">
        <ele>0</ele>
        <time>2020-07-27T19:39:47Z</time>
      </trkpt>
      <trkpt lat="51.216940210651" lon="4.459484618336">
        <ele>0</ele>
        <time>2020-07-27T19:40:06Z</time>
      </trkpt>
      <trkpt lat="51.2173065835" lon="4.458826974462">
        <ele>0</ele>
        <time>2020-07-27T19:40:23Z</time>
      </trkpt>
      <trkpt lat="51.217673207806" lon="4.458156506281">
        <ele>0</ele>
        <time>2020-07-27T19:40:42Z</time>
      </trkpt>
      <trkpt lat="51.218005382503" lon="4.457444631514">
        <ele>0</ele>
        <time>2020-07-27T19:41:05Z</time>
      </trkpt>
      <trkpt lat="51.218137062152" lon="4.45659252756">
        <ele>0</ele>
        <time>2020-07-27T19:41:23Z</time>
      </trkpt>
      <trkpt lat="51.21817997748" lon="4.455726509652">
        <ele>0</ele>
        <time>2020-07-27T19:41:40Z</time>
      </trkpt>
      <trkpt lat="51.218176121806" lon="4.454853786224">
        <ele>0</ele>
        <time>2020-07-27T19:41:55Z</time>
      </trkpt>
      <trkpt lat="51.21820428499" lon="4.45396647829">
        <ele>0</ele>
        <time>2020-07-27T19:42:11Z</time>
      </trkpt>
      <trkpt lat="51.218251139811" lon="4.453055617217">
        <ele>0</ele>
        <time>2020-07-27T19:42:27Z</time>
      </trkpt>
      <trkpt lat="51.218299503374" lon="4.452174595708">
        <ele>0</ele>
        <time>2020-07-27T19:42:43Z</time>
      </trkpt>
      <trkpt lat="51.21842724353" lon="4.451828674695">
        <ele>0</ele>
        <time>2020-07-27T19:42:51Z</time>
      </trkpt>
      <trkpt lat="51.218549703089" lon="4.451790369412">
        <ele>0</ele>
        <time>2020-07-27T19:42:54Z</time>
      </trkpt>
      <trkpt lat="51.218757574209" lon="4.451809647782">
        <ele>0</ele>
        <time>2020-07-27T19:42:58Z</time>
      </trkpt>
      <trkpt lat="51.218874501714" lon="4.451857340793">
        <ele>0</ele>
        <time>2020-07-27T19:43:00Z</time>
      </trkpt>
      <trkpt lat="51.219355455136" lon="4.452113407838">
        <ele>0</ele>
        <time>2020-07-27T19:43:19Z</time>
      </trkpt>
      <trkpt lat="51.219913941133" lon="4.452008131174">
        <ele>0</ele>
        <time>2020-07-27T19:43:37Z</time>
      </trkpt>
      <trkpt lat="51.220483407419" lon="4.451911739324">
        <ele>0</ele>
        <time>2020-07-27T19:43:54Z</time>
      </trkpt>
      <trkpt lat="51.221034768801" lon="4.451763044418">
        <ele>0</ele>
        <time>2020-07-27T19:44:09Z</time>
      </trkpt>
      <trkpt lat="51.22160817458" lon="4.451600938472">
        <ele>0</ele>
        <time>2020-07-27T19:44:25Z</time>
      </trkpt>
      <trkpt lat="51.222130031674" lon="4.451293658018">
        <ele>0</ele>
        <time>2020-07-27T19:44:38Z</time>
      </trkpt>
      <trkpt lat="51.222672005328" lon="4.451135994479">
        <ele>0</ele>
        <time>2020-07-27T19:44:52Z</time>
      </trkpt>
      <trkpt lat="51.223206854367" lon="4.451213359416">
        <ele>0</ele>
        <time>2020-07-27T19:45:08Z</time>
      </trkpt>
      <trkpt lat="51.223704152494" lon="4.451573362021">
        <ele>0</ele>
        <time>2020-07-27T19:45:24Z</time>
      </trkpt>
      <trkpt lat="51.223817224325" lon="4.451689702793">
        <ele>0</ele>
        <time>2020-07-27T19:45:29Z</time>
      </trkpt>
      <trkpt lat="51.224244868863" lon="4.451124511276">
        <ele>0</ele>
        <time>2020-07-27T19:45:48Z</time>
      </trkpt>
      <trkpt lat="51.224636890326" lon="4.450502741934">
        <ele>0</ele>
        <time>2020-07-27T19:46:07Z</time>
      </trkpt>
      <trkpt lat="51.225034024748" lon="4.449920870436">
        <ele>0</ele>
        <time>2020-07-27T19:46:27Z</time>
      </trkpt>
      <trkpt lat="51.225572478004" lon="4.449726410356">
        <ele>0</ele>
        <time>2020-07-27T19:46:49Z</time>
      </trkpt>
      <trkpt lat="51.226065585181" lon="4.449396582591">
        <ele>0</ele>
        <time>2020-07-27T19:47:05Z</time>
      </trkpt>
      <trkpt lat="51.226342439338" lon="4.448620167194">
        <ele>0</ele>
        <time>2020-07-27T19:47:27Z</time>
      </trkpt>
      <trkpt lat="51.226676541872" lon="4.447947519719">
        <ele>0</ele>
        <time>2020-07-27T19:47:45Z</time>
      </trkpt>
      <trkpt lat="51.227096391243" lon="4.447382914935">
        <ele>0</ele>
        <time>2020-07-27T19:48:01Z</time>
      </trkpt>
      <trkpt lat="51.227501404651" lon="4.446780004868">
        <ele>0</ele>
        <time>2020-07-27T19:48:17Z</time>
      </trkpt>
      <trkpt lat="51.227908681172" lon="4.446185728158">
        <ele>0</ele>
        <time>2020-07-27T19:48:35Z</time>
      </trkpt>
      <trkpt lat="51.228255356556" lon="4.445510901389">
        <ele>0</ele>
        <time>2020-07-27T19:48:51Z</time>
      </trkpt>
      <trkpt lat="51.228532713627" lon="4.444737587295">
        <ele>0</ele>
        <time>2020-07-27T19:49:09Z</time>
      </trkpt>
      <trkpt lat="51.228945773659" lon="4.444130234821">
        <ele>0</ele>
        <time>2020-07-27T19:49:27Z</time>
      </trkpt>
      <trkpt lat="51.229463355984" lon="4.443828234964">
        <ele>0</ele>
        <time>2020-07-27T19:49:46Z</time>
      </trkpt>
      <trkpt lat="51.229712549871" lon="4.444641782178">
        <ele>0</ele>
        <time>2020-07-27T19:50:03Z</time>
      </trkpt>
      <trkpt lat="51.229443407062" lon="4.445372600039">
        <ele>1.2</ele>
        <time>2020-07-27T19:50:22Z</time>
      </trkpt>
      <trkpt lat="51.229065299553" lon="4.446024879497">
        <ele>3.6</ele>
        <time>2020-07-27T19:50:40Z</time>
      </trkpt>
      <trkpt lat="51.228715019952" lon="4.446708004347">
        <ele>0</ele>
        <time>2020-07-27T19:50:59Z</time>
      </trkpt>
      <trkpt lat="51.228320986833" lon="4.447205051017">
        <ele>2.8</ele>
        <time>2020-07-27T19:51:22Z</time>
      </trkpt>
      <trkpt lat="51.22836314779" lon="4.447260371557">
        <ele>3.8</ele>
        <time>2020-07-27T19:51:27Z</time>
      </trkpt>
      <trkpt lat="51.228385527463" lon="4.447236566961">
        <ele>1</ele>
        <time>2020-07-27T19:51:30Z</time>
      </trkpt>
      <trkpt lat="51.228750559208" lon="4.447901670726">
        <ele>0</ele>
        <time>2020-07-27T19:51:50Z</time>
      </trkpt>
      <trkpt lat="51.229019534379" lon="4.448410284418">
        <ele>0.2</ele>
        <time>2020-07-27T19:52:10Z</time>
      </trkpt>
      <trkpt lat="51.22898676115" lon="4.448491253572">
        <ele>2.6</ele>
        <time>2020-07-27T19:52:17Z</time>
      </trkpt>
      <trkpt lat="51.228911491688" lon="4.448661154685">
        <ele>2.4</ele>
        <time>2020-07-27T19:52:56Z</time>
      </trkpt>
      <trkpt lat="51.228528355039" lon="4.449263142743">
        <ele>0</ele>
        <time>2020-07-27T19:53:15Z</time>
      </trkpt>
      <trkpt lat="51.228529779962" lon="4.449266830779">
        <ele>0</ele>
        <time>2020-07-27T19:53:20Z</time>
      </trkpt>
    </trkseg>
  </trk>
</gpx>